Terminal Aerodrome Forecast
Issued by NWS Newport/Morehead City, NC

Home | Current Version | Previous Version | Text Only | Print | Product List | Glossary On
Versions: 1 2 3 4 5 6 7 8 9 10 11 12 13 14 15 16 17 18 19 20
000
FTUS42 KMHX 121100
TAFEWN
TAF
KEWN 121130Z 1212/1312 VRB03KT P6SM SCT030
      TEMPO 1212/1213 4SM BR BKN010
     FM121700 VRB06KT P6SM SCT040
     FM130000 17005KT P6SM SKC
     FM130800 00000KT 5SM BR SKC=

USA.gov is the U.S. government's official web portal to all federal, state and local government web resources and services.